createdAt,value
2018-04-18T00:03:01.743Z,18.43
2018-04-18T00:08:02.709Z,19.93
2018-04-18T00:13:03.677Z,24.97
2018-04-18T00:18:04.656Z,20.30
2018-04-18T00:23:05.665Z,33.23
2018-04-18T00:28:06.607Z,20.83
2018-04-18T00:33:07.545Z,17.33
2018-04-18T00:38:08.497Z,17.87
2018-04-18T00:43:09.431Z,22.80
2018-04-18T00:48:10.413Z,21.47
2018-04-18T00:53:11.372Z,16.43
2018-04-18T00:58:12.343Z,19.70
2018-04-18T01:03:13.305Z,17.73
2018-04-18T01:08:14.263Z,10.53
2018-04-18T01:13:15.213Z,20.63
2018-04-18T01:18:16.197Z,24.37
2018-04-18T01:23:17.189Z,21.33
2018-04-18T01:28:18.136Z,27.30
2018-04-18T01:33:19.097Z,20.90
2018-04-18T01:38:20.070Z,27.80
2018-04-18T01:43:21.015Z,17.33
2018-04-18T01:48:21.958Z,40.63
2018-04-18T01:53:22.916Z,23.23
2018-04-18T01:58:23.884Z,28.07
2018-04-18T02:03:24.832Z,21.97
2018-04-18T02:08:25.796Z,25.73
2018-04-18T02:13:26.742Z,20.47
2018-04-18T02:18:27.684Z,23.03
2018-04-18T02:23:28.655Z,23.17
2018-04-18T02:28:29.610Z,22.60
2018-04-18T02:33:30.567Z,16.23
2018-04-18T02:38:31.536Z,19.57
2018-04-18T02:43:32.488Z,19.40
2018-04-18T02:48:33.443Z,23.20
2018-04-18T02:53:34.406Z,20.53
2018-04-18T02:58:35.384Z,15.97
2018-04-18T03:03:36.375Z,23.57
2018-04-18T03:08:37.336Z,24.60
2018-04-18T03:13:38.301Z,17.60
2018-04-18T03:18:39.267Z,20.63
2018-04-18T03:23:40.227Z,18.23
2018-04-18T03:28:41.176Z,18.93
2018-04-18T03:33:42.971Z,16.43
2018-04-18T03:38:43.909Z,22.37
2018-04-18T03:43:44.881Z,16.20
2018-04-18T03:48:45.824Z,28.50
2018-04-18T03:53:46.764Z,21.27
2018-04-18T03:58:47.748Z,19.03
2018-04-18T04:03:48.674Z,21.93
2018-04-18T04:08:49.634Z,23.23
2018-04-18T04:13:50.583Z,25.60
2018-04-18T04:19:03.897Z,19.50
2018-04-18T04:24:17.260Z,25.30
2018-04-18T04:29:18.196Z,20.73
2018-04-18T04:34:19.151Z,18.63
2018-04-18T04:39:20.090Z,17.53
2018-04-18T04:44:21.036Z,28.33
2018-04-18T04:49:22.004Z,23.23
2018-04-18T04:54:22.988Z,20.43
2018-04-18T04:59:24.006Z,22.43
2018-04-18T05:04:24.928Z,21.77
2018-04-18T05:09:25.909Z,17.17
2018-04-18T05:14:26.864Z,16.03
2018-04-18T05:19:27.820Z,26.77
2018-04-18T05:24:28.806Z,16.27
2018-04-18T05:29:29.745Z,19.00
2018-04-18T05:34:30.700Z,28.43
2018-04-18T05:39:31.662Z,25.40
2018-04-18T05:44:32.626Z,33.57
2018-04-18T05:49:33.584Z,30.20
2018-04-18T05:54:34.569Z,23.50
2018-04-18T05:59:35.556Z,26.80
2018-04-18T06:04:36.510Z,31.93
2018-04-18T06:09:37.462Z,30.97
2018-04-18T06:14:38.423Z,34.33
2018-04-18T06:19:39.416Z,37.67
2018-04-18T06:24:40.389Z,39.30
2018-04-18T06:29:41.345Z,32.53
2018-04-18T06:34:42.304Z,37.33
2018-04-18T06:39:43.263Z,32.43
2018-04-18T06:44:44.207Z,34.30
2018-04-18T06:49:45.151Z,34.73
2018-04-18T06:54:46.110Z,39.33
2018-04-18T06:59:47.087Z,45.73
2018-04-18T07:04:48.068Z,43.53
2018-04-18T07:09:49.049Z,34.77
2018-04-18T07:14:50.012Z,34.47
2018-04-18T07:19:50.969Z,55.40
2018-04-18T07:24:51.934Z,38.10
2018-04-18T07:29:52.924Z,34.13
2018-04-18T07:34:53.911Z,30.03
2018-04-18T07:39:54.881Z,39.33
2018-04-18T07:44:55.830Z,43.47
2018-04-18T07:49:56.792Z,33.00
2018-04-18T07:54:57.784Z,35.10
2018-04-18T07:59:58.791Z,31.80
2018-04-18T08:04:59.746Z,28.10
2018-04-18T08:10:00.700Z,32.60
2018-04-18T08:15:01.647Z,31.13
2018-04-18T08:20:02.674Z,28.67
2018-04-18T08:25:03.655Z,20.37
2018-04-18T08:30:04.624Z,23.30
2018-04-18T08:35:05.653Z,19.97
2018-04-18T08:40:06.625Z,22.60
2018-04-18T08:45:07.603Z,16.43
2018-04-18T08:50:08.589Z,25.93
2018-04-18T08:55:09.535Z,23.37
2018-04-18T09:00:10.525Z,22.00
2018-04-18T09:05:11.477Z,16.40
2018-04-18T09:10:12.403Z,25.53
2018-04-18T09:15:13.374Z,17.20
2018-04-18T09:20:14.349Z,14.67
2018-04-18T09:25:15.332Z,17.50
2018-04-18T09:30:16.318Z,12.70
2018-04-18T09:35:17.268Z,21.20
2018-04-18T09:40:18.253Z,15.13
2018-04-18T09:45:19.200Z,13.63
2018-04-18T09:50:20.173Z,16.23
2018-04-18T09:55:21.135Z,16.70
2018-04-18T10:00:28.336Z,15.10
2018-04-18T10:05:29.292Z,12.30
2018-04-18T10:10:30.244Z,19.70
2018-04-18T10:15:31.188Z,15.17
2018-04-18T10:20:32.136Z,19.10
2018-04-18T10:25:33.137Z,14.67
2018-04-18T10:30:34.100Z,17.23
2018-04-18T10:35:35.077Z,19.40
2018-04-18T10:40:36.027Z,18.33
2018-04-18T10:45:36.986Z,12.20
2018-04-18T10:50:37.918Z,13.90
2018-04-18T10:55:38.864Z,14.40
2018-04-18T11:00:39.896Z,14.23
2018-04-18T11:05:40.853Z,15.97
2018-04-18T11:10:41.971Z,24.30
2018-04-18T11:15:42.945Z,7.80
2018-04-18T11:20:43.886Z,21.33
2018-04-18T11:25:44.867Z,14.93
2018-04-18T11:30:46.076Z,14.87
2018-04-18T11:35:47.036Z,23.17
2018-04-18T11:40:47.983Z,11.23
2018-04-18T11:45:48.945Z,13.77
2018-04-18T11:50:49.903Z,16.40
2018-04-18T11:55:50.857Z,9.10
2018-04-18T12:00:51.846Z,15.33
2018-04-18T12:05:52.817Z,10.33
2018-04-18T12:10:53.814Z,8.53
2018-04-18T12:15:54.768Z,6.97
2018-04-18T12:20:55.773Z,13.17
2018-04-18T12:25:56.755Z,7.97
2018-04-18T12:30:57.701Z,10.33
2018-04-18T12:35:58.672Z,6.90
2018-04-18T12:40:59.660Z,5.10
2018-04-18T12:46:00.664Z,6.43
2018-04-18T12:51:01.635Z,14.93
2018-04-18T12:56:02.618Z,20.27
2018-04-18T13:01:03.632Z,3.87
2018-04-18T13:06:04.579Z,8.93
2018-04-18T13:11:05.551Z,7.53
2018-04-18T13:16:06.517Z,9.03
2018-04-18T13:21:07.490Z,6.50
2018-04-18T13:26:08.471Z,11.20
2018-04-18T13:31:09.493Z,4.90
2018-04-18T13:36:10.468Z,11.20
2018-04-18T13:41:11.443Z,11.20
2018-04-18T13:46:12.439Z,7.40
2018-04-18T13:51:13.418Z,6.33
2018-04-18T13:56:14.417Z,10.97
2018-04-18T14:01:15.453Z,7.10
2018-04-18T14:06:16.428Z,9.73
2018-04-18T14:11:17.385Z,9.23
2018-04-18T14:16:18.389Z,8.70
2018-04-18T14:21:19.365Z,10.10
2018-04-18T14:26:20.343Z,7.23
2018-04-18T14:31:21.352Z,8.60
2018-04-18T14:36:22.345Z,5.73
2018-04-18T14:41:23.309Z,7.97
2018-04-18T14:46:24.288Z,7.30
2018-04-18T14:51:25.265Z,6.27
2018-04-18T14:56:26.247Z,7.13
2018-04-18T15:01:27.272Z,4.60
2018-04-18T15:06:28.221Z,12.57
2018-04-18T15:11:29.177Z,8.83
2018-04-18T15:16:30.151Z,14.47
2018-04-18T15:21:31.103Z,5.83
2018-04-18T15:26:32.079Z,8.00
2018-04-18T15:31:33.043Z,6.00
2018-04-18T15:36:33.991Z,12.60
2018-04-18T15:41:34.967Z,6.63
2018-04-18T15:46:35.926Z,7.07
2018-04-18T15:51:36.902Z,10.10
2018-04-18T15:56:37.893Z,10.23
2018-04-18T16:01:38.936Z,7.70
2018-04-18T16:06:39.935Z,5.70
2018-04-18T16:11:40.931Z,7.83
2018-04-18T16:16:41.904Z,7.13
2018-04-18T16:21:42.901Z,7.13
2018-04-18T16:26:43.903Z,9.07
2018-04-18T16:31:44.888Z,2.47
2018-04-18T16:36:45.877Z,7.47
2018-04-18T16:41:46.888Z,6.40
2018-04-18T16:46:47.869Z,5.20
2018-04-18T16:51:48.904Z,5.40
2018-04-18T16:56:49.899Z,9.20
2018-04-18T17:01:50.940Z,6.67
2018-04-18T17:06:52.001Z,10.97
2018-04-18T17:11:52.912Z,11.67
2018-04-18T17:16:53.901Z,13.43
2018-04-18T17:21:54.953Z,10.10
2018-04-18T17:26:55.939Z,8.60
2018-04-18T17:31:56.907Z,8.63
2018-04-18T17:36:57.917Z,11.97
2018-04-18T17:41:58.904Z,8.27
2018-04-18T17:46:59.900Z,13.30
2018-04-18T17:52:00.893Z,4.20
2018-04-18T17:57:01.874Z,6.60
2018-04-18T18:02:02.894Z,7.50
2018-04-18T18:07:03.905Z,8.33
2018-04-18T18:12:04.942Z,11.50
2018-04-18T18:17:05.915Z,10.23
2018-04-18T18:22:06.917Z,12.07
2018-04-18T18:27:07.973Z,11.77
2018-04-18T18:32:09.035Z,10.20
2018-04-18T18:37:10.056Z,10.03
2018-04-18T18:42:11.060Z,10.17
2018-04-18T18:47:12.109Z,9.57
2018-04-18T18:52:13.142Z,7.53
2018-04-18T18:57:14.124Z,13.17
2018-04-18T19:02:15.165Z,10.07
2018-04-18T19:07:16.184Z,11.93
2018-04-18T19:12:17.156Z,10.50
2018-04-18T19:17:18.163Z,12.60
2018-04-18T19:22:19.195Z,15.17
2018-04-18T19:27:20.478Z,14.03
2018-04-18T19:32:21.454Z,13.73
2018-04-18T19:37:22.492Z,7.00
2018-04-18T19:42:23.499Z,10.27
2018-04-18T19:47:24.532Z,10.07
2018-04-18T19:52:25.573Z,6.47
2018-04-18T19:57:26.588Z,9.63
2018-04-18T20:02:27.632Z,6.00
2018-04-18T20:07:28.602Z,12.13
2018-04-18T20:12:29.633Z,9.10
2018-04-18T20:17:30.622Z,13.93
2018-04-18T20:22:31.701Z,11.63
2018-04-18T20:27:32.648Z,16.40
2018-04-18T20:32:33.623Z,11.00
2018-04-18T20:37:34.640Z,16.00
2018-04-18T20:42:35.679Z,12.43
2018-04-18T20:47:36.665Z,13.03
2018-04-18T20:52:37.661Z,13.63
2018-04-18T20:57:38.660Z,13.53
2018-04-18T21:02:39.693Z,20.43
2018-04-18T21:07:41.634Z,12.23
2018-04-18T21:12:42.644Z,13.47
2018-04-18T21:17:43.917Z,11.67
2018-04-18T21:22:44.931Z,12.83
2018-04-18T21:27:45.952Z,10.37
2018-04-18T21:32:46.984Z,13.70
2018-04-18T21:37:47.948Z,20.47
2018-04-18T21:42:48.954Z,18.63
2018-04-18T21:47:49.932Z,13.50
2018-04-18T21:52:50.927Z,16.57
2018-04-18T21:57:51.887Z,8.90
2018-04-18T22:02:52.904Z,12.93
2018-04-18T22:07:53.903Z,15.33
2018-04-18T22:12:54.888Z,11.57
2018-04-18T22:17:55.871Z,18.40
2018-04-18T22:22:56.830Z,16.97
2018-04-18T22:27:57.836Z,14.40
2018-04-18T22:32:58.793Z,15.63
2018-04-18T22:37:59.793Z,13.07
2018-04-18T22:43:00.760Z,17.27
2018-04-18T22:48:01.732Z,15.80
2018-04-18T22:53:02.716Z,20.63
2018-04-18T22:58:03.676Z,19.43
2018-04-18T23:03:04.651Z,17.33
2018-04-18T23:08:05.631Z,20.60
2018-04-18T23:13:06.606Z,23.40
2018-04-18T23:18:07.597Z,20.10
2018-04-18T23:23:08.564Z,18.60
2018-04-18T23:28:09.538Z,13.03
2018-04-18T23:33:10.499Z,20.63
2018-04-18T23:38:11.455Z,18.70
2018-04-18T23:43:12.417Z,14.97
2018-04-18T23:48:13.401Z,15.23
2018-04-18T23:53:14.353Z,16.80
2018-04-18T23:58:15.306Z,15.27
